createdAt,value
2023-02-19T00:01:25.408Z,0.20
2023-02-19T00:03:56.651Z,0.28
2023-02-19T00:06:24.454Z,0.30
2023-02-19T00:08:50.889Z,0.30
2023-02-19T00:11:22.597Z,0.30
2023-02-19T00:13:51.037Z,0.30
2023-02-19T00:16:23.590Z,0.25
2023-02-19T00:18:50.247Z,0.40
2023-02-19T00:21:17.050Z,0.32
2023-02-19T00:23:43.334Z,0.30
2023-02-19T00:26:18.301Z,0.38
2023-02-19T00:28:46.323Z,0.38
2023-02-19T00:31:23.530Z,0.30
2023-02-19T00:33:52.956Z,0.30
2023-02-19T00:36:19.064Z,0.30
2023-02-19T00:38:46.009Z,0.40
2023-02-19T00:41:19.322Z,0.45
2023-02-19T00:43:45.345Z,0.45
2023-02-19T00:46:11.622Z,0.25
2023-02-19T00:48:37.707Z,0.30
2023-02-19T00:51:03.904Z,0.20
2023-02-19T00:53:29.975Z,0.30
2023-02-19T00:55:56.014Z,0.20
2023-02-19T00:58:22.078Z,0.25
2023-02-19T01:00:48.141Z,0.30
2023-02-19T01:03:14.195Z,0.30
2023-02-19T01:05:40.245Z,0.38
2023-02-19T01:08:06.310Z,0.35
2023-02-19T01:10:32.389Z,0.30
2023-02-19T01:12:58.487Z,0.40
2023-02-19T01:15:24.531Z,0.22
2023-02-19T01:17:50.588Z,0.40
2023-02-19T01:20:16.761Z,0.30
2023-02-19T01:22:42.862Z,0.22
2023-02-19T01:25:09.005Z,0.30
2023-02-19T01:27:35.051Z,0.30
2023-02-19T01:30:01.183Z,0.30
2023-02-19T01:32:27.606Z,0.30
2023-02-19T01:34:53.664Z,0.20
2023-02-19T01:37:19.710Z,0.32
2023-02-19T01:39:47.051Z,0.30
2023-02-19T01:42:16.304Z,0.30
2023-02-19T01:44:42.326Z,0.40
2023-02-19T01:47:08.492Z,0.40
2023-02-19T01:49:38.832Z,0.40
2023-02-19T01:52:07.893Z,0.30
2023-02-19T01:54:37.603Z,0.30
2023-02-19T01:57:07.407Z,0.40
2023-02-19T01:59:33.986Z,0.32
2023-02-19T02:02:00.287Z,0.40
2023-02-19T02:04:29.649Z,0.30
2023-02-19T02:06:56.772Z,0.30
2023-02-19T02:09:46.939Z,0.30
2023-02-19T02:12:13.566Z,0.40
2023-02-19T02:14:43.667Z,0.40
2023-02-19T02:17:25.108Z,0.40
2023-02-19T02:20:00.050Z,0.47
2023-02-19T02:22:29.121Z,0.20
2023-02-19T02:25:04.309Z,0.35
2023-02-19T02:28:01.959Z,0.30
2023-02-19T02:30:43.055Z,0.40
2023-02-19T02:33:39.170Z,0.30
2023-02-19T02:36:09.905Z,0.38
2023-02-19T02:38:39.638Z,0.38
2023-02-19T02:41:06.228Z,0.30
2023-02-19T02:43:32.545Z,0.30
2023-02-19T02:45:59.018Z,0.40
2023-02-19T02:48:33.908Z,0.40
2023-02-19T02:51:04.607Z,0.30
2023-02-19T02:53:49.192Z,0.50
2023-02-19T02:56:17.841Z,0.40
2023-02-19T02:58:45.953Z,0.40
2023-02-19T03:01:37.743Z,0.35
2023-02-19T03:04:13.222Z,0.38
2023-02-19T03:06:40.964Z,0.40
2023-02-19T03:09:11.983Z,0.30
2023-02-19T03:12:01.164Z,0.30
2023-02-19T03:15:06.924Z,0.40
2023-02-19T03:18:00.010Z,0.40
2023-02-19T03:20:27.400Z,0.35
2023-02-19T03:22:55.945Z,0.43
2023-02-19T03:25:45.179Z,0.30
2023-02-19T03:28:15.388Z,0.45
2023-02-19T03:30:47.245Z,0.30
2023-02-19T03:33:25.243Z,0.30
2023-02-19T03:35:56.775Z,0.30
2023-02-19T03:38:26.076Z,0.40
2023-02-19T03:41:06.481Z,0.30
2023-02-19T03:43:44.753Z,0.38
2023-02-19T03:46:22.491Z,0.30
2023-02-19T03:48:56.629Z,0.30
2023-02-19T03:51:38.582Z,0.30
2023-02-19T03:54:12.475Z,0.30
2023-02-19T03:56:53.095Z,0.38
2023-02-19T03:59:36.815Z,0.50
2023-02-19T04:02:10.201Z,0.40
2023-02-19T04:04:41.125Z,0.30
2023-02-19T04:07:07.619Z,0.35
2023-02-19T04:09:38.886Z,0.50
2023-02-19T04:12:06.286Z,0.30
2023-02-19T04:14:34.837Z,0.60
2023-02-19T04:17:11.175Z,0.30
2023-02-19T04:19:39.771Z,0.30
2023-02-19T04:22:07.316Z,0.50
2023-02-19T04:24:42.344Z,0.30
2023-02-19T04:27:09.294Z,0.38
2023-02-19T04:29:36.652Z,0.30
2023-02-19T04:32:04.351Z,0.30
2023-02-19T04:34:30.428Z,0.40
2023-02-19T04:36:56.474Z,0.30
2023-02-19T04:39:22.563Z,0.30
2023-02-19T04:41:48.741Z,0.30
2023-02-19T04:44:14.805Z,0.40
2023-02-19T04:46:43.039Z,0.40
2023-02-19T04:49:09.317Z,0.40
2023-02-19T04:51:35.415Z,0.30
2023-02-19T04:54:01.511Z,0.20
2023-02-19T04:56:27.669Z,0.38
2023-02-19T04:58:53.776Z,0.30
2023-02-19T05:01:19.869Z,0.30
2023-02-19T05:03:45.958Z,0.40
2023-02-19T05:06:13.250Z,0.38
2023-02-19T05:08:40.669Z,0.40
2023-02-19T05:11:10.135Z,0.40
2023-02-19T05:13:37.242Z,0.30
2023-02-19T05:16:15.441Z,0.20
2023-02-19T05:18:43.483Z,0.20
2023-02-19T05:21:11.014Z,0.30
2023-02-19T05:23:37.998Z,0.20
2023-02-19T05:26:19.360Z,0.20
2023-02-19T05:28:47.566Z,0.30
2023-02-19T05:31:14.283Z,0.20
2023-02-19T05:33:42.352Z,0.30
2023-02-19T05:36:10.885Z,0.20
2023-02-19T05:38:37.775Z,0.30
2023-02-19T05:41:11.471Z,0.20
2023-02-19T05:43:39.102Z,0.10
2023-02-19T05:46:05.985Z,0.20
2023-02-19T05:48:32.826Z,0.10
2023-02-19T05:51:04.427Z,0.20
2023-02-19T05:53:31.158Z,0.15
2023-02-19T05:55:57.585Z,0.20
2023-02-19T05:58:23.698Z,0.20
2023-02-19T06:00:50.084Z,0.20
2023-02-19T06:03:16.131Z,0.20
2023-02-19T06:05:42.181Z,0.28
2023-02-19T06:08:11.803Z,0.10
2023-02-19T06:10:40.600Z,0.20
2023-02-19T06:13:08.696Z,0.10
2023-02-19T06:15:36.091Z,0.10
2023-02-19T06:18:02.336Z,0.10
2023-02-19T06:20:29.059Z,0.20
2023-02-19T06:22:55.406Z,0.20
2023-02-19T06:25:21.455Z,0.20
2023-02-19T06:27:47.518Z,0.20
2023-02-19T06:30:13.692Z,0.10
2023-02-19T06:32:39.768Z,0.13
2023-02-19T06:35:05.997Z,0.20
2023-02-19T06:37:32.048Z,0.20
2023-02-19T06:39:58.181Z,0.10
2023-02-19T06:42:24.239Z,0.10
2023-02-19T06:44:50.292Z,0.10
2023-02-19T06:47:16.352Z,0.10
2023-02-19T06:49:42.443Z,0.10
2023-02-19T06:52:08.529Z,0.20
2023-02-19T06:54:34.602Z,0.10
2023-02-19T06:57:00.969Z,0.20
2023-02-19T06:59:28.008Z,0.20
2023-02-19T07:01:54.100Z,0.20
2023-02-19T07:04:20.224Z,0.10
2023-02-19T07:06:46.326Z,0.10
2023-02-19T07:09:12.481Z,0.20
2023-02-19T07:11:39.598Z,0.15
2023-02-19T07:14:08.138Z,0.20
2023-02-19T07:16:34.368Z,0.10
2023-02-19T07:19:00.884Z,0.20
2023-02-19T07:21:27.556Z,0.10
2023-02-19T07:23:54.019Z,0.20
2023-02-19T07:26:21.237Z,0.10
2023-02-19T07:28:49.156Z,0.20
2023-02-19T07:31:17.542Z,0.20
2023-02-19T07:33:44.449Z,0.10
2023-02-19T07:36:11.529Z,0.20
2023-02-19T07:38:37.589Z,0.10
2023-02-19T07:41:04.850Z,0.20
2023-02-19T07:43:33.385Z,0.15
2023-02-19T07:46:05.778Z,0.10
2023-02-19T07:48:31.905Z,0.15
2023-02-19T07:50:59.686Z,0.10
2023-02-19T07:53:26.480Z,0.13
2023-02-19T07:55:52.956Z,0.10
2023-02-19T07:58:19.244Z,0.10
2023-02-19T08:00:45.416Z,0.08
2023-02-19T08:03:11.610Z,0.20
2023-02-19T08:05:40.034Z,0.10
2023-02-19T08:08:07.947Z,0.10
2023-02-19T08:10:52.447Z,0.20
2023-02-19T08:13:18.938Z,0.10
2023-02-19T08:15:46.111Z,0.10
2023-02-19T08:18:13.540Z,0.20
2023-02-19T08:20:40.390Z,0.20
2023-02-19T08:23:07.010Z,0.10
2023-02-19T08:25:33.387Z,0.15
2023-02-19T08:28:00.020Z,0.10
2023-02-19T08:30:27.610Z,0.15
2023-02-19T08:32:54.075Z,0.10
2023-02-19T08:35:20.485Z,0.17
2023-02-19T08:37:46.557Z,0.20
2023-02-19T08:40:12.632Z,0.20
2023-02-19T08:42:38.689Z,0.10
2023-02-19T08:45:05.277Z,0.10
2023-02-19T08:47:33.729Z,0.10
2023-02-19T08:49:59.809Z,0.10
2023-02-19T08:52:25.872Z,0.20
2023-02-19T08:54:51.929Z,0.20
2023-02-19T08:57:18.690Z,0.10
2023-02-19T08:59:44.793Z,0.10
2023-02-19T09:02:12.101Z,0.10
2023-02-19T09:04:38.875Z,0.10
2023-02-19T09:07:07.174Z,0.20
2023-02-19T09:09:36.027Z,0.20
2023-02-19T09:12:04.600Z,0.20
2023-02-19T09:14:34.644Z,0.15
2023-02-19T09:17:01.430Z,0.10
2023-02-19T09:19:27.796Z,0.20
2023-02-19T09:21:54.411Z,0.10
2023-02-19T09:24:20.759Z,0.10
2023-02-19T09:26:51.254Z,0.10
2023-02-19T09:29:18.142Z,0.10
2023-02-19T09:31:44.830Z,0.10
2023-02-19T09:34:11.192Z,0.20
2023-02-19T09:36:38.308Z,0.20
2023-02-19T09:39:06.970Z,0.10
2023-02-19T09:41:44.614Z,0.20
2023-02-19T09:44:13.927Z,0.10
2023-02-19T09:46:45.608Z,0.10
2023-02-19T09:49:18.826Z,0.10
2023-02-19T09:51:59.799Z,0.10
2023-02-19T09:54:30.354Z,0.10
2023-02-19T09:56:59.493Z,0.20
2023-02-19T09:59:29.699Z,0.20
2023-02-19T10:02:15.962Z,0.10
2023-02-19T10:04:44.082Z,0.10
2023-02-19T10:07:13.620Z,0.17
2023-02-19T10:09:39.926Z,0.20
2023-02-19T10:12:19.744Z,0.10
2023-02-19T10:14:49.387Z,0.10
2023-02-19T10:17:25.462Z,0.08
2023-02-19T10:19:52.655Z,0.17
2023-02-19T10:22:19.906Z,0.10
2023-02-19T10:24:51.264Z,0.10
2023-02-19T10:27:17.570Z,0.00
2023-02-19T10:29:45.737Z,0.10
2023-02-19T10:32:20.388Z,0.15
2023-02-19T10:34:47.141Z,0.10
2023-02-19T10:37:18.217Z,0.05
2023-02-19T10:39:49.876Z,0.28
2023-02-19T10:42:22.979Z,0.10
2023-02-19T10:45:01.104Z,0.15
2023-02-19T10:47:30.131Z,0.10
2023-02-19T10:49:59.134Z,0.20
2023-02-19T10:52:29.060Z,0.20
2023-02-19T10:55:14.920Z,0.10
2023-02-19T10:57:41.160Z,0.20
2023-02-19T11:00:16.444Z,0.20
2023-02-19T11:02:43.804Z,0.10
2023-02-19T11:05:14.429Z,0.10
2023-02-19T11:07:51.328Z,0.10
2023-02-19T11:10:28.242Z,0.20
2023-02-19T11:12:57.424Z,0.15
2023-02-19T11:15:29.547Z,0.20
2023-02-19T11:17:59.725Z,0.03
2023-02-19T11:20:27.078Z,0.10
2023-02-19T11:22:58.537Z,0.10
2023-02-19T11:25:25.201Z,0.20
2023-02-19T11:28:18.106Z,0.10
2023-02-19T11:30:45.986Z,0.20
2023-02-19T11:33:23.840Z,0.10
2023-02-19T11:36:16.037Z,0.10
2023-02-19T11:38:42.410Z,0.10
2023-02-19T11:41:34.886Z,0.10
2023-02-19T11:44:35.979Z,0.20
2023-02-19T11:47:21.047Z,0.10
2023-02-19T11:50:26.720Z,0.00
2023-02-19T11:53:18.778Z,0.10
2023-02-19T11:55:57.177Z,0.10
2023-02-19T11:58:48.083Z,0.10
2023-02-19T12:01:14.120Z,0.10
2023-02-19T12:03:50.602Z,0.10
2023-02-19T12:06:38.531Z,0.20
2023-02-19T12:09:29.740Z,0.10
2023-02-19T12:11:58.891Z,0.10
2023-02-19T12:14:52.639Z,0.20
2023-02-19T12:17:46.326Z,0.10
2023-02-19T12:20:36.198Z,0.10
2023-02-19T12:23:31.221Z,0.10
2023-02-19T12:26:11.824Z,0.10
2023-02-19T12:28:38.054Z,0.10
2023-02-19T12:31:34.621Z,0.20
2023-02-19T12:34:18.152Z,0.10
2023-02-19T12:36:56.172Z,0.08
2023-02-19T12:40:14.953Z,0.10
2023-02-19T12:43:11.468Z,0.10
2023-02-19T12:45:44.513Z,0.15
2023-02-19T12:48:26.137Z,0.10
2023-02-19T12:51:03.838Z,0.20
2023-02-19T12:53:35.548Z,0.10
2023-02-19T12:56:05.866Z,0.10
2023-02-19T12:58:39.122Z,0.20
2023-02-19T13:01:06.813Z,0.00
2023-02-19T13:04:05.793Z,0.20
2023-02-19T13:07:09.867Z,0.10
2023-02-19T13:09:47.085Z,0.10
2023-02-19T13:12:28.092Z,0.20
2023-02-19T13:15:18.441Z,0.10
2023-02-19T13:17:51.662Z,0.10
2023-02-19T13:20:31.503Z,0.10
2023-02-19T13:23:24.799Z,0.10
2023-02-19T13:26:09.427Z,0.10
2023-02-19T13:28:59.647Z,0.13
2023-02-19T13:32:01.014Z,0.10
2023-02-19T13:34:59.668Z,0.10
2023-02-19T13:37:26.108Z,0.10
2023-02-19T13:40:25.723Z,0.10
2023-02-19T13:42:55.303Z,0.15
2023-02-19T13:45:43.400Z,0.15
2023-02-19T13:48:25.745Z,0.13
2023-02-19T13:51:18.020Z,0.13
2023-02-19T13:53:47.554Z,0.10
2023-02-19T13:56:36.668Z,0.22
2023-02-19T13:59:29.008Z,0.10
2023-02-19T14:01:59.881Z,0.10
2023-02-19T14:04:31.718Z,0.05
2023-02-19T14:07:03.791Z,0.08
2023-02-19T14:09:35.944Z,0.10
2023-02-19T14:12:22.258Z,0.10
2023-02-19T14:14:49.254Z,0.10
2023-02-19T14:17:34.294Z,0.00
2023-02-19T14:20:16.723Z,0.00
2023-02-19T14:22:51.881Z,0.10
2023-02-19T14:25:23.584Z,0.10
2023-02-19T14:27:51.828Z,0.20
2023-02-19T14:30:18.498Z,0.10
2023-02-19T14:32:47.405Z,0.10
2023-02-19T14:35:34.256Z,0.20
2023-02-19T14:38:01.420Z,0.10
2023-02-19T14:40:40.860Z,0.10
2023-02-19T14:43:14.906Z,0.10
2023-02-19T14:45:45.265Z,0.10
2023-02-19T14:48:20.151Z,0.20
2023-02-19T14:50:49.404Z,0.10
2023-02-19T14:53:17.232Z,0.10
2023-02-19T14:55:45.857Z,0.20
2023-02-19T14:58:16.222Z,0.20
2023-02-19T15:00:43.023Z,0.20
2023-02-19T15:03:29.195Z,0.20
2023-02-19T15:06:04.601Z,0.10
2023-02-19T15:08:44.457Z,0.20
2023-02-19T15:11:19.928Z,0.10
2023-02-19T15:13:56.528Z,0.20
2023-02-19T15:16:25.883Z,0.20
2023-02-19T15:18:54.214Z,0.22
2023-02-19T15:21:26.559Z,0.10
2023-02-19T15:23:56.179Z,0.17
2023-02-19T15:26:29.974Z,0.10
2023-02-19T15:28:58.546Z,0.15
2023-02-19T15:31:24.712Z,0.20
2023-02-19T15:33:52.093Z,0.10
2023-02-19T15:36:33.299Z,0.10
2023-02-19T15:39:01.966Z,0.20
2023-02-19T15:41:33.869Z,0.10
2023-02-19T15:44:13.285Z,0.10
2023-02-19T15:46:41.458Z,0.30
2023-02-19T15:49:20.751Z,0.20
2023-02-19T15:51:49.716Z,0.30
2023-02-19T15:54:27.008Z,0.20
2023-02-19T15:56:56.793Z,0.20
2023-02-19T15:59:39.136Z,0.20
2023-02-19T16:02:12.026Z,0.30
2023-02-19T16:04:39.232Z,0.20
2023-02-19T16:07:05.632Z,0.10
2023-02-19T16:09:36.171Z,0.28
2023-02-19T16:12:24.492Z,0.20
2023-02-19T16:14:50.570Z,0.10
2023-02-19T16:17:21.391Z,0.10
2023-02-19T16:19:53.771Z,0.10
2023-02-19T16:22:23.616Z,0.20
2023-02-19T16:24:52.994Z,0.10
2023-02-19T16:27:33.385Z,0.20
2023-02-19T16:30:08.313Z,0.22
2023-02-19T16:32:34.660Z,0.10
2023-02-19T16:35:00.759Z,0.10
2023-02-19T16:37:37.333Z,0.10
2023-02-19T16:40:11.926Z,0.20
2023-02-19T16:43:17.922Z,0.20
2023-02-19T16:45:45.503Z,0.10
2023-02-19T16:48:12.202Z,0.10
2023-02-19T16:50:42.827Z,0.20
2023-02-19T16:53:18.874Z,0.22
2023-02-19T16:55:45.436Z,0.20
2023-02-19T16:58:11.525Z,0.20
2023-02-19T17:00:37.618Z,0.10
2023-02-19T17:03:13.975Z,0.20
2023-02-19T17:05:40.539Z,0.20
2023-02-19T17:08:33.477Z,0.20
2023-02-19T17:11:01.574Z,0.30
2023-02-19T17:13:28.775Z,0.20
2023-02-19T17:15:55.426Z,0.20
2023-02-19T17:18:21.581Z,0.40
2023-02-19T17:20:51.476Z,0.20
2023-02-19T17:23:17.542Z,0.25
2023-02-19T17:25:43.647Z,0.20
2023-02-19T17:28:09.703Z,0.38
2023-02-19T17:30:36.169Z,0.30
2023-02-19T17:33:03.122Z,0.20
2023-02-19T17:35:29.319Z,0.20
2023-02-19T17:37:55.396Z,0.30
2023-02-19T17:40:32.731Z,0.30
2023-02-19T17:43:00.012Z,0.40
2023-02-19T17:45:26.268Z,0.30
2023-02-19T17:47:52.496Z,0.30
2023-02-19T17:50:25.024Z,0.35
2023-02-19T17:52:51.084Z,0.25
2023-02-19T17:55:17.807Z,0.30
2023-02-19T17:57:48.705Z,0.20
2023-02-19T18:00:17.412Z,0.52
2023-02-19T18:02:43.455Z,0.40
2023-02-19T18:05:10.143Z,0.30
2023-02-19T18:07:36.332Z,0.38
2023-02-19T18:10:04.398Z,0.35
2023-02-19T18:12:30.515Z,0.30
2023-02-19T18:14:56.775Z,0.40
2023-02-19T18:17:24.268Z,0.30
2023-02-19T18:19:51.169Z,0.40
2023-02-19T18:22:17.445Z,0.30
2023-02-19T18:24:48.048Z,0.30
2023-02-19T18:27:15.014Z,0.40
2023-02-19T18:29:41.282Z,0.20
2023-02-19T18:32:07.687Z,0.40
2023-02-19T18:34:33.777Z,0.30
2023-02-19T18:36:59.897Z,0.20
2023-02-19T18:39:25.991Z,0.22
2023-02-19T18:41:52.087Z,0.30
2023-02-19T18:44:23.446Z,0.20
2023-02-19T18:46:49.668Z,0.25
2023-02-19T18:49:16.712Z,0.30
2023-02-19T18:51:43.808Z,0.30
2023-02-19T18:54:10.464Z,0.22
2023-02-19T18:56:43.522Z,0.25
2023-02-19T18:59:10.408Z,0.32
2023-02-19T19:01:36.519Z,0.38
2023-02-19T19:04:02.884Z,0.30
2023-02-19T19:06:29.078Z,0.40
2023-02-19T19:08:55.224Z,0.30
2023-02-19T19:11:21.993Z,0.20
2023-02-19T19:13:48.328Z,0.30
2023-02-19T19:16:14.427Z,0.30
2023-02-19T19:18:40.492Z,0.35
2023-02-19T19:21:08.736Z,0.40
2023-02-19T19:23:35.496Z,0.30
2023-02-19T19:26:05.314Z,0.30
2023-02-19T19:28:31.711Z,0.35
2023-02-19T19:30:58.777Z,0.30
2023-02-19T19:33:28.067Z,0.30
2023-02-19T19:35:54.298Z,0.28
2023-02-19T19:38:20.367Z,0.20
2023-02-19T19:40:46.545Z,0.30
2023-02-19T19:43:12.595Z,0.30
2023-02-19T19:45:38.687Z,0.20
2023-02-19T19:48:05.418Z,0.40
2023-02-19T19:50:31.509Z,0.28
2023-02-19T19:52:57.609Z,0.30
2023-02-19T19:55:23.749Z,0.20
2023-02-19T19:57:49.933Z,0.40
2023-02-19T20:00:18.173Z,0.30
2023-02-19T20:02:45.581Z,0.28
2023-02-19T20:05:12.813Z,0.20
2023-02-19T20:07:39.332Z,0.30
2023-02-19T20:10:07.407Z,0.30
2023-02-19T20:12:34.109Z,0.30
2023-02-19T20:15:00.191Z,0.30
2023-02-19T20:17:28.138Z,0.30
2023-02-19T20:19:54.322Z,0.30
2023-02-19T20:22:20.393Z,0.40
2023-02-19T20:24:55.137Z,0.30
2023-02-19T20:27:22.249Z,0.30
2023-02-19T20:29:49.107Z,0.40
2023-02-19T20:32:17.858Z,0.30
2023-02-19T20:34:45.353Z,0.30
2023-02-19T20:37:11.518Z,0.30
2023-02-19T20:39:37.589Z,0.30
2023-02-19T20:42:04.285Z,0.28
2023-02-19T20:44:30.340Z,0.20
2023-02-19T20:46:58.412Z,0.40
2023-02-19T20:49:27.685Z,0.40
2023-02-19T20:51:59.064Z,0.30
2023-02-19T20:54:28.110Z,0.43
2023-02-19T20:56:56.709Z,0.50
2023-02-19T20:59:26.606Z,0.40
2023-02-19T21:01:53.066Z,0.45
2023-02-19T21:04:19.409Z,0.30
2023-02-19T21:06:45.540Z,0.30
2023-02-19T21:09:11.736Z,0.28
2023-02-19T21:11:38.548Z,0.30
2023-02-19T21:14:04.687Z,0.30
2023-02-19T21:16:31.863Z,0.38
2023-02-19T21:18:58.470Z,0.55
2023-02-19T21:21:25.583Z,0.28
2023-02-19T21:23:56.316Z,0.30
2023-02-19T21:26:23.244Z,0.40
2023-02-19T21:28:52.777Z,0.40
2023-02-19T21:31:20.114Z,0.30
2023-02-19T21:33:46.444Z,0.32
2023-02-19T21:36:12.713Z,0.40
2023-02-19T21:38:38.909Z,0.40
2023-02-19T21:41:05.084Z,0.22
2023-02-19T21:43:31.414Z,0.30
2023-02-19T21:45:57.522Z,0.40
2023-02-19T21:48:23.639Z,0.35
2023-02-19T21:50:49.751Z,0.20
2023-02-19T21:53:15.908Z,0.40
2023-02-19T21:55:57.447Z,0.40
2023-02-19T21:58:25.091Z,0.30
2023-02-19T22:00:53.075Z,0.45
2023-02-19T22:03:19.186Z,0.40
2023-02-19T22:05:45.768Z,0.40
2023-02-19T22:08:14.828Z,0.52
2023-02-19T22:10:41.831Z,0.30
2023-02-19T22:13:08.638Z,0.30
2023-02-19T22:15:34.807Z,0.50
2023-02-19T22:18:00.980Z,0.40
2023-02-19T22:20:27.012Z,0.40
2023-02-19T22:22:53.057Z,0.50
2023-02-19T22:25:19.169Z,0.35
2023-02-19T22:27:45.221Z,0.30
2023-02-19T22:30:11.713Z,0.30
2023-02-19T22:32:39.537Z,0.30
2023-02-19T22:35:06.436Z,0.40
2023-02-19T22:37:32.621Z,0.35
2023-02-19T22:39:58.676Z,0.40
2023-02-19T22:42:24.744Z,0.50
2023-02-19T22:44:51.068Z,0.30
2023-02-19T22:47:20.487Z,0.30
2023-02-19T22:49:46.647Z,0.40
2023-02-19T22:52:13.196Z,0.40
2023-02-19T22:54:39.283Z,0.40
2023-02-19T22:57:05.582Z,0.45
2023-02-19T22:59:31.714Z,0.30
2023-02-19T23:01:57.773Z,0.35
2023-02-19T23:04:24.891Z,0.40
2023-02-19T23:06:51.493Z,0.40
2023-02-19T23:09:26.584Z,0.30
2023-02-19T23:11:59.670Z,0.38
2023-02-19T23:14:25.744Z,0.40
2023-02-19T23:16:51.866Z,0.50
2023-02-19T23:19:18.074Z,0.40
2023-02-19T23:21:45.033Z,0.30
2023-02-19T23:24:12.471Z,0.30
2023-02-19T23:26:49.381Z,0.30
2023-02-19T23:29:19.488Z,0.30
2023-02-19T23:31:46.214Z,0.35
2023-02-19T23:34:12.691Z,0.30
2023-02-19T23:36:49.602Z,0.40
2023-02-19T23:39:18.298Z,0.40
2023-02-19T23:41:48.711Z,0.45
2023-02-19T23:44:15.879Z,0.30
2023-02-19T23:46:42.512Z,0.40
2023-02-19T23:49:08.669Z,0.22
2023-02-19T23:51:34.765Z,0.40
2023-02-19T23:54:01.148Z,0.32
2023-02-19T23:56:28.831Z,0.40
2023-02-19T23:58:54.976Z,0.30
